Time;durP1;ratioP1;P1;durP2;ratioP2;P2;SDS_P1;SDS_P2;PMS_P1;PMS_P2;Temp;Humidity;BMP_temperature;BMP_pressure;BME280_temperature;BME280_humidity;BME280_pressure;Samples;Min_cycle;Max_cycle;Signal;HPM_P1;HPM_P2
2023/06/23 00:04:19;;;;;;;30.73;27.92;;;26.50;73.60;;;;;;4658678;55;21108;-36
2023/06/23 00:09:22;;;;;;;29.15;26.40;;;26.50;73.60;;;;;;4621698;55;21511;-36
2023/06/23 00:14:23;;;;;;;30.52;27.62;;;26.50;73.60;;;;;;4615951;60;21564;-36
2023/06/23 00:19:23;;;;;;;31.55;28.55;;;26.50;73.50;;;;;;4614983;60;21115;-39
2023/06/23 00:24:24;;;;;;;31.12;28.23;;;26.50;73.50;;;;;;4650489;55;21564;-34
2023/06/23 00:29:25;;;;;;;28.75;26.12;;;26.50;73.50;;;;;;4672523;55;21025;-36
2023/06/23 00:34:26;;;;;;;28.35;25.75;;;26.50;73.50;;;;;;4636824;55;21583;-37
2023/06/23 00:39:27;;;;;;;30.60;27.70;;;26.50;73.50;;;;;;4653815;55;21124;-37
2023/06/23 00:44:28;;;;;;;30.12;27.33;;;26.50;73.50;;;;;;4901853;55;21402;-37
2023/06/23 00:49:29;;;;;;;29.08;26.35;;;26.50;73.60;;;;;;4615943;59;21053;-37
2023/06/23 00:54:34;;;;;;;29.83;26.98;;;26.50;73.50;;;;;;4657828;56;21057;-35
2023/06/23 00:59:34;;;;;;;29.83;27.02;;;26.50;73.50;;;;;;4631696;55;21957;-37
2023/06/23 01:04:35;;;;;;;29.87;27.13;;;26.50;73.50;;;;;;4741985;55;21399;-38
2023/06/23 01:10:45;;;;;;;30.55;27.65;;;26.50;73.50;;;;;;4649073;55;21686;-37
2023/06/23 01:15:53;;;;;;;30.40;27.60;;;26.50;73.50;;;;;;4623593;56;21591;-37
2023/06/23 01:21:01;;;;;;;30.05;27.27;;;26.50;73.50;;;;;;4637961;56;21017;-35
2023/06/23 01:29:40;;;;;;;29.30;26.60;;;26.50;73.50;;;;;;4633747;56;21595;-37
2023/06/23 01:34:49;;;;;;;29.05;26.37;;;26.50;73.50;;;;;;4719109;56;21491;-36
2023/06/23 01:40:10;;;;;;;30.65;27.85;;;26.50;73.50;;;;;;4632260;56;21049;-37
2023/06/23 01:45:13;;;;;;;30.17;27.48;;;26.50;73.50;;;;;;4657023;56;21033;-37
2023/06/23 01:50:16;;;;;;;28.62;25.95;;;26.50;73.50;;;;;;4750325;56;21025;-36
2023/06/23 01:55:18;;;;;;;30.70;27.80;;;26.50;73.50;;;;;;4693402;56;21487;-36
2023/06/23 02:00:22;;;;;;;29.92;27.13;;;26.50;73.50;;;;;;4643769;56;21355;-36
2023/06/23 02:05:27;;;;;;;28.70;26.10;;;26.50;73.50;;;;;;4615489;60;21551;-38
2023/06/23 02:10:28;;;;;;;28.33;25.73;;;26.50;73.50;;;;;;4647605;56;21069;-39
2023/06/23 02:15:30;;;;;;;28.42;25.73;;;26.50;73.50;;;;;;4688342;55;21094;-35
2023/06/23 02:20:32;;;;;;;29.63;26.92;;;26.50;73.50;;;;;;4633107;56;21017;-38
2023/06/23 02:25:35;;;;;;;30.02;27.23;;;26.50;73.40;;;;;;4615808;60;21491;-37
2023/06/23 02:30:38;;;;;;;28.38;25.67;;;26.50;73.40;;;;;;4771816;56;21025;-36
2023/06/23 02:35:39;;;;;;;29.35;26.70;;;26.50;73.40;;;;;;4769776;56;21068;-33
2023/06/23 02:40:42;;;;;;;27.25;24.75;;;26.50;73.40;;;;;;4677181;56;21125;-35
2023/06/23 02:45:48;;;;;;;28.02;25.58;;;26.50;73.40;;;;;;4664094;56;21576;-36
2023/06/23 02:50:50;;;;;;;27.20;24.60;;;26.50;73.40;;;;;;4651231;56;21017;-37
2023/06/23 02:56:00;;;;;;;28.45;25.80;;;26.50;73.40;;;;;;4634159;56;21037;-37
2023/06/23 03:01:03;;;;;;;29.10;26.40;;;26.50;73.40;;;;;;4614784;60;21567;-35
2023/06/23 03:06:04;;;;;;;29.08;26.45;;;26.50;73.40;;;;;;4615034;60;21100;-37
2023/06/23 03:11:05;;;;;;;28.67;25.98;;;26.50;73.40;;;;;;4692383;56;21063;-37
2023/06/23 03:16:12;;;;;;;28.35;25.75;;;26.50;73.40;;;;;;4615454;59;21085;-36
2023/06/23 03:21:15;;;;;;;27.70;25.20;;;26.50;73.40;;;;;;4649170;56;21116;-37
2023/06/23 03:26:17;;;;;;;28.33;25.70;;;26.50;73.40;;;;;;4697504;56;21088;-37
2023/06/23 03:31:19;;;;;;;29.55;26.85;;;26.50;73.40;;;;;;4646678;56;21025;-36
2023/06/23 03:36:23;;;;;;;28.98;26.35;;;26.50;73.30;;;;;;4793323;56;21100;-38
2023/06/23 03:41:28;;;;;;;29.08;26.48;;;26.50;73.40;;;;;;4615935;60;21097;-34
2023/06/23 03:46:42;;;;;;;29.52;26.87;;;26.50;73.30;;;;;;4699225;56;21347;-38
2023/06/23 03:51:46;;;;;;;28.17;25.42;;;26.50;73.30;;;;;;4629958;56;21041;-36
2023/06/23 03:56:48;;;;;;;27.13;24.65;;;26.50;73.20;;;;;;4622728;56;21029;-35
2023/06/23 04:01:49;;;;;;;27.75;25.23;;;26.50;73.90;;;;;;4627650;56;21508;-33
2023/06/23 04:06:53;;;;;;;28.30;25.70;;;26.50;73.20;;;;;;4760292;56;21040;-35
2023/06/23 04:11:57;;;;;;;29.02;26.37;;;26.50;73.20;;;;;;4731682;56;21017;-35
2023/06/23 04:16:59;;;;;;;27.80;25.25;;;26.50;73.20;;;;;;4622313;56;21073;-35
2023/06/23 04:22:02;;;;;;;27.80;25.25;;;26.50;73.20;;;;;;4781679;56;21009;-34
2023/06/23 04:27:07;;;;;;;26.60;24.20;;;26.50;73.20;;;;;;4884920;56;21029;-33
2023/06/23 04:32:10;;;;;;;27.05;24.55;;;26.50;73.10;;;;;;4615684;60;21033;-36
2023/06/23 04:37:30;;;;;;;26.00;23.52;;;26.50;73.10;;;;;;4658111;56;21117;-32
2023/06/23 04:44:17;;;;;;;27.52;25.02;;;26.50;73.10;;;;;;4615757;60;21065;-32
2023/06/23 04:49:21;;;;;;;27.08;24.42;;;26.50;73.10;;;;;;4639359;56;21065;-35
2023/06/23 04:54:27;;;;;;;26.15;23.75;;;26.50;73.00;;;;;;4648098;56;21141;-35
2023/06/23 04:59:33;;;;;;;27.67;24.87;;;26.50;73.00;;;;;;4626708;56;21507;-37
2023/06/23 05:04:36;;;;;;;26.27;23.90;;;26.50;73.00;;;;;;4663582;56;21029;-32
2023/06/23 05:09:38;;;;;;;25.08;22.77;;;26.50;72.90;;;;;;4692824;56;21042;-37
2023/06/23 05:14:41;;;;;;;25.80;23.30;;;26.50;73.60;;;;;;4615581;60;21013;-37
2023/06/23 05:19:43;;;;;;;26.30;23.90;;;26.50;72.90;;;;;;4633600;56;21579;-37
2023/06/23 05:24:52;;;;;;;27.27;24.67;;;26.50;72.90;;;;;;4637499;56;21044;-37
2023/06/23 05:29:57;;;;;;;25.77;23.38;;;26.50;72.90;;;;;;4615597;57;21591;-36
2023/06/23 05:35:03;;;;;;;26.35;23.83;;;26.50;72.90;;;;;;4615809;60;21074;-36
2023/06/23 05:40:06;;;;;;;26.48;23.98;;;26.50;72.90;;;;;;4636961;56;21129;-39
2023/06/23 05:45:09;;;;;;;26.55;24.08;;;26.50;72.90;;;;;;4615288;60;21005;-37
2023/06/23 05:50:21;;;;;;;25.77;23.38;;;26.50;72.90;;;;;;4616766;56;21040;-36
2023/06/23 05:55:24;;;;;;;26.15;23.62;;;26.50;72.90;;;;;;4657224;56;21354;-44
2023/06/23 06:00:31;;;;;;;24.77;22.48;;;26.50;72.90;;;;;;4625075;56;21037;-37
2023/06/23 06:05:34;;;;;;;24.70;22.30;;;26.50;72.80;;;;;;4618313;56;21001;-41
2023/06/23 06:10:38;;;;;;;26.35;23.90;;;26.50;72.80;;;;;;4615057;60;21078;-36
2023/06/23 06:15:39;;;;;;;26.37;23.80;;;26.50;72.90;;;;;;4640778;56;21049;-30
2023/06/23 06:20:41;;;;;;;26.05;23.55;;;26.50;72.80;;;;;;4624785;56;21571;-34
2023/06/23 06:25:45;;;;;;;25.23;22.92;;;26.50;72.80;;;;;;4632701;56;21077;-36
2023/06/23 06:30:46;;;;;;;26.27;23.77;;;26.50;72.80;;;;;;4614760;58;21120;-38
2023/06/23 06:35:51;;;;;;;24.95;22.73;;;26.50;72.80;;;;;;4704754;56;21615;-35
2023/06/23 06:40:54;;;;;;;26.00;23.45;;;26.50;72.80;;;;;;4623073;56;21600;-39
2023/06/23 06:45:56;;;;;;;26.92;24.37;;;26.50;72.80;;;;;;4613580;60;21557;-29
2023/06/23 06:50:57;;;;;;;26.02;23.62;;;26.50;72.80;;;;;;4624157;56;20989;-32
2023/06/23 06:55:59;;;;;;;25.20;22.73;;;26.60;72.70;;;;;;4690206;56;21037;-31
2023/06/23 07:01:00;;;;;;;25.92;23.52;;;26.70;72.50;;;;;;4623717;56;21128;-30
2023/06/23 07:06:02;;;;;;;27.33;24.87;;;26.70;72.70;;;;;;4613587;56;21085;-48
2023/06/23 07:11:02;;;;;;;26.15;23.73;;;26.80;72.80;;;;;;4694088;55;21081;-34
2023/06/23 07:16:06;;;;;;;26.37;23.98;;;26.80;72.80;;;;;;4663922;55;21398;-37
2023/06/23 07:21:10;;;;;;;25.77;23.27;;;26.70;72.80;;;;;;4683419;56;21054;-37
2023/06/23 07:26:11;;;;;;;25.00;22.37;;;26.70;72.80;;;;;;4683425;56;21590;-34
2023/06/23 07:31:12;;;;;;;27.33;24.73;;;26.70;72.80;;;;;;4610655;55;21025;-35
2023/06/23 07:36:12;;;;;;;24.80;22.50;;;26.70;72.70;;;;;;4611726;55;21032;-34
2023/06/23 07:41:14;;;;;;;25.58;23.17;;;26.70;72.70;;;;;;4633448;55;21542;-36
2023/06/23 07:46:14;;;;;;;27.20;24.60;;;26.80;72.70;;;;;;4647993;55;21095;-35
2023/06/23 07:51:15;;;;;;;25.40;23.00;;;26.80;73.10;;;;;;4667021;56;21453;-33
2023/06/23 07:56:16;;;;;;;26.30;23.90;;;26.90;73.50;;;;;;4678572;56;21010;-34
2023/06/23 08:01:17;;;;;;;26.12;23.62;;;26.90;73.30;;;;;;4679039;56;20998;-33
2023/06/23 08:06:23;;;;;;;26.35;23.85;;;26.90;73.50;;;;;;4709020;56;21020;-36
2023/06/23 08:11:24;;;;;;;26.42;23.83;;;26.90;73.90;;;;;;4674142;56;21449;-29
2023/06/23 08:16:25;;;;;;;25.37;22.98;;;27.00;74.00;;;;;;4671408;56;20994;-37
2023/06/23 08:21:26;;;;;;;24.77;22.40;;;27.00;74.00;;;;;;4726434;56;21037;-33
2023/06/23 08:26:26;;;;;;;25.45;22.87;;;27.00;73.90;;;;;;4676821;56;21512;-32
2023/06/23 08:31:27;;;;;;;25.40;23.00;;;27.00;73.80;;;;;;4672844;56;21026;-40
2023/06/23 08:36:28;;;;;;;24.67;22.37;;;27.00;73.80;;;;;;4670278;56;21496;-33
2023/06/23 08:41:32;;;;;;;26.33;23.83;;;27.10;73.80;;;;;;4686395;56;21046;-33
2023/06/23 08:46:35;;;;;;;26.55;23.95;;;27.10;73.80;;;;;;4657283;60;21102;-34
2023/06/23 08:51:36;;;;;;;25.85;23.23;;;27.10;73.80;;;;;;4707370;56;21014;-31
2023/06/23 08:56:37;;;;;;;25.80;23.23;;;27.10;73.80;;;;;;4658693;56;21540;-35
2023/06/23 09:01:38;;;;;;;26.80;24.12;;;27.10;74.00;;;;;;4658757;56;21006;-33
2023/06/23 09:06:40;;;;;;;27.27;24.67;;;27.10;73.80;;;;;;4691281;56;21006;-31
2023/06/23 09:11:45;;;;;;;26.27;23.70;;;27.20;73.80;;;;;;4666461;56;21559;-35
2023/06/23 09:16:46;;;;;;;26.80;24.30;;;27.20;73.80;;;;;;4687061;56;20987;-34
2023/06/23 09:21:47;;;;;;;26.02;23.52;;;27.20;73.90;;;;;;4684775;56;21472;-37
2023/06/23 09:26:54;;;;;;;27.55;24.85;;;27.20;73.90;;;;;;4665036;56;21010;-36
2023/06/23 09:31:58;;;;;;;27.58;24.77;;;27.20;73.70;;;;;;4667227;56;22062;-36
2023/06/23 09:37:10;;;;;;;28.48;25.67;;;27.20;73.80;;;;;;4658564;60;21105;-33
2023/06/23 09:42:16;;;;;;;28.73;25.92;;;27.10;73.90;;;;;;4768896;56;21015;-36
2023/06/23 09:47:18;;;;;;;28.17;25.40;;;27.10;74.10;;;;;;4656881;60;21539;-37
2023/06/23 09:52:27;;;;;;;28.83;25.85;;;27.10;74.10;;;;;;4658954;56;21002;-35
2023/06/23 09:57:30;;;;;;;26.83;24.15;;;27.00;74.20;;;;;;4695993;56;21006;-38
2023/06/23 10:02:31;;;;;;;26.90;24.17;;;27.00;74.20;;;;;;4667063;56;21519;-37
2023/06/23 10:07:32;;;;;;;27.73;25.05;;;27.00;74.10;;;;;;4717150;55;21155;-35
2023/06/23 10:12:34;;;;;;;29.27;26.30;;;27.00;74.20;;;;;;4681394;56;20978;-36
2023/06/23 10:17:36;;;;;;;25.90;23.38;;;27.00;74.10;;;;;;4678476;56;21494;-37
2023/06/23 10:22:39;;;;;;;28.12;25.17;;;27.00;74.00;;;;;;4659543;60;21488;-37
2023/06/23 10:27:43;;;;;;;28.85;25.55;;;27.00;74.60;;;;;;4685524;56;21492;-35
2023/06/23 10:32:52;;;;;;;27.15;24.40;;;27.00;74.00;;;;;;4670771;56;21066;-36
2023/06/23 10:38:03;;;;;;;28.25;25.33;;;27.00;73.90;;;;;;4666436;56;21038;-35
2023/06/23 10:43:06;;;;;;;29.73;26.67;;;27.00;73.80;;;;;;4659640;60;21609;-38
2023/06/23 10:48:07;;;;;;;29.50;26.45;;;27.00;73.80;;;;;;4707567;56;21520;-39
2023/06/23 10:53:20;;;;;;;27.90;25.10;;;27.00;73.70;;;;;;4676566;56;21596;-38
2023/06/23 10:58:21;;;;;;;28.38;25.48;;;27.00;73.70;;;;;;4910995;56;21066;-37
2023/06/23 11:03:38;;;;;;;28.92;26.00;;;27.00;73.70;;;;;;4694782;55;21548;-37
2023/06/23 11:08:41;;;;;;;27.83;25.15;;;26.90;73.60;;;;;;4659975;57;21026;-32
2023/06/23 11:13:50;;;;;;;28.95;26.08;;;27.00;73.60;;;;;;4659582;60;21002;-36
2023/06/23 11:18:53;;;;;;;29.35;26.10;;;27.00;73.50;;;;;;4739577;56;21544;-37
2023/06/23 11:24:12;;;;;;;28.17;25.30;;;27.00;73.50;;;;;;4667634;56;21046;-35
2023/06/23 11:29:15;;;;;;;28.38;25.37;;;27.00;73.40;;;;;;4659525;60;20998;-38
2023/06/23 11:34:18;;;;;;;27.30;24.60;;;27.00;73.40;;;;;;4743451;56;20983;-37
2023/06/23 11:39:19;;;;;;;29.80;26.62;;;27.00;73.20;;;;;;4683519;56;21512;-37
2023/06/23 11:44:21;;;;;;;26.83;24.02;;;27.00;73.20;;;;;;4668592;56;20999;-37
2023/06/23 11:49:24;;;;;;;29.02;26.08;;;27.00;73.10;;;;;;4774176;55;21528;-38
2023/06/23 11:54:25;;;;;;;29.73;26.42;;;27.00;73.10;;;;;;4782558;56;21863;-41
2023/06/23 11:59:25;;;;;;;30.48;26.80;;;27.00;73.00;;;;;;4659367;60;21098;-36
2023/06/23 12:04:26;;;;;;;29.25;26.35;;;27.00;73.00;;;;;;4833990;56;21452;-37
2023/06/23 12:09:27;;;;;;;29.85;26.42;;;27.00;73.00;;;;;;4713029;56;21104;-40
2023/06/23 12:14:36;;;;;;;28.73;25.83;;;27.00;72.80;;;;;;4660636;56;21090;-35
2023/06/23 12:19:41;;;;;;;27.80;24.80;;;27.00;72.90;;;;;;4711514;56;22082;-35
2023/06/23 12:24:42;;;;;;;29.08;25.62;;;27.00;72.80;;;;;;4674113;56;21512;-35
2023/06/23 12:29:43;;;;;;;29.52;26.35;;;27.00;72.70;;;;;;4793125;56;21006;-37
2023/06/23 12:34:48;;;;;;;28.92;25.75;;;27.00;72.70;;;;;;4715917;56;20994;-37
2023/06/23 12:39:54;;;;;;;28.00;25.10;;;27.00;72.60;;;;;;4658648;60;21616;-37
2023/06/23 12:44:55;;;;;;;28.03;25.17;;;27.00;72.50;;;;;;4703956;55;21480;-34
2023/06/23 12:50:06;;;;;;;29.70;24.80;;;27.00;72.50;;;;;;4692353;56;20987;-36
2023/06/23 12:55:07;;;;;;;29.73;26.52;;;27.10;72.60;;;;;;4659920;60;21551;-36
2023/06/23 13:00:09;;;;;;;29.08;25.88;;;27.10;72.40;;;;;;4659011;56;21066;-34
2023/06/23 13:05:10;;;;;;;26.83;24.00;;;27.10;72.40;;;;;;4659193;60;20999;-38
2023/06/23 13:10:11;;;;;;;28.67;24.50;;;27.10;72.30;;;;;;4665519;56;21058;-37
2023/06/23 13:15:12;;;;;;;27.00;24.10;;;27.10;72.30;;;;;;4659755;60;21157;-36
2023/06/23 13:20:13;;;;;;;28.62;23.90;;;27.10;72.20;;;;;;4722459;56;21061;-35
2023/06/23 13:25:14;;;;;;;27.27;24.30;;;27.10;72.30;;;;;;4780714;56;21057;-36
2023/06/23 13:30:15;;;;;;;27.95;24.90;;;27.10;72.20;;;;;;4673885;56;21496;-37
2023/06/23 13:35:16;;;;;;;29.20;25.00;;;27.10;72.10;;;;;;4659539;60;21626;-35
2023/06/23 13:40:17;;;;;;;29.48;25.15;;;27.10;72.30;;;;;;4674401;56;21022;-38
2023/06/23 13:45:18;;;;;;;27.52;24.48;;;27.10;72.10;;;;;;4659677;60;21496;-37
2023/06/23 13:50:19;;;;;;;25.80;23.10;;;27.10;72.00;;;;;;4751032;55;21010;-36
2023/06/23 13:55:20;;;;;;;27.70;24.63;;;27.10;72.00;;;;;;4764119;56;20992;-36
2023/06/23 14:00:24;;;;;;;28.62;24.63;;;27.10;72.00;;;;;;4658747;60;21097;-37
2023/06/23 14:05:25;;;;;;;27.98;24.60;;;27.10;71.90;;;;;;4669726;56;21449;-37
2023/06/23 14:10:26;;;;;;;26.60;23.50;;;27.10;71.80;;;;;;4702365;56;21022;-38
2023/06/23 14:15:27;;;;;;;25.65;22.42;;;27.10;71.80;;;;;;4659179;60;21010;-36
2023/06/23 14:20:29;;;;;;;27.90;22.55;;;27.10;71.70;;;;;;4702894;56;21488;-39
2023/06/23 14:25:32;;;;;;;26.95;24.05;;;27.10;71.70;;;;;;4659648;60;21517;-37
2023/06/23 14:30:33;;;;;;;26.45;23.60;;;27.10;71.70;;;;;;4659101;60;21119;-36
2023/06/23 14:35:34;;;;;;;26.33;23.38;;;27.10;72.30;;;;;;4728088;56;21070;-35
2023/06/23 14:40:35;;;;;;;25.05;21.85;;;27.10;71.50;;;;;;4670300;56;21074;-33
2023/06/23 14:45:38;;;;;;;26.95;23.50;;;27.10;71.50;;;;;;4705742;56;20990;-35
2023/06/23 14:50:39;;;;;;;24.50;21.58;;;27.20;71.50;;;;;;4686660;56;20990;-39
2023/06/23 14:55:40;;;;;;;24.67;21.98;;;27.10;71.50;;;;;;4815712;56;20991;-37
2023/06/23 15:00:40;;;;;;;24.48;21.70;;;27.10;71.50;;;;;;4694423;56;21026;-38
2023/06/23 15:05:41;;;;;;;23.10;20.48;;;27.20;71.50;;;;;;4818951;56;21488;-32
2023/06/23 15:10:42;;;;;;;24.20;21.62;;;27.10;71.40;;;;;;4667565;56;21070;-36
2023/06/23 15:15:43;;;;;;;26.15;22.83;;;27.10;71.50;;;;;;4659404;60;20994;-36
2023/06/23 15:20:44;;;;;;;26.37;22.42;;;27.20;71.40;;;;;;4711832;56;21018;-36
2023/06/23 15:25:45;;;;;;;23.65;21.15;;;27.20;71.40;;;;;;4742169;56;21046;-35
2023/06/23 15:30:46;;;;;;;24.80;20.75;;;27.20;71.40;;;;;;4699814;56;21602;-32
2023/06/23 15:35:47;;;;;;;26.85;22.08;;;27.20;71.40;;;;;;4659892;60;21034;-37
2023/06/23 15:40:47;;;;;;;25.33;22.25;;;27.20;71.50;;;;;;4659146;60;21559;-37
2023/06/23 15:45:49;;;;;;;24.65;22.02;;;27.20;71.40;;;;;;4659746;60;21026;-37
2023/06/23 15:50:53;;;;;;;22.40;19.90;;;27.20;71.40;;;;;;4673640;56;21058;-37
2023/06/23 15:55:54;;;;;;;23.58;20.88;;;27.20;71.40;;;;;;4659894;60;20990;-39
2023/06/23 16:00:54;;;;;;;24.20;21.58;;;27.20;71.60;;;;;;4658640;60;21123;-38
2023/06/23 16:05:56;;;;;;;25.10;21.73;;;27.20;71.50;;;;;;4741603;56;21295;-39
2023/06/23 16:10:57;;;;;;;25.02;22.30;;;27.20;71.60;;;;;;4724783;56;21584;-38
2023/06/23 16:15:58;;;;;;;23.83;21.40;;;27.20;71.60;;;;;;4716847;56;21002;-37
2023/06/23 16:20:59;;;;;;;25.45;22.35;;;27.20;71.60;;;;;;4708125;56;21070;-38
2023/06/23 16:26:00;;;;;;;27.85;21.42;;;27.20;71.70;;;;;;4749028;56;20998;-38
2023/06/23 16:31:01;;;;;;;24.65;21.98;;;27.20;71.70;;;;;;4776863;56;21492;-38
2023/06/23 16:36:03;;;;;;;26.33;23.17;;;27.20;71.70;;;;;;4660963;56;21014;-37
2023/06/23 16:41:04;;;;;;;26.25;23.02;;;27.20;71.70;;;;;;4659244;56;21003;-39
2023/06/23 16:46:04;;;;;;;26.90;21.52;;;27.20;72.50;;;;;;4667192;56;21437;-36
2023/06/23 16:51:05;;;;;;;27.27;22.67;;;27.20;71.80;;;;;;4701691;56;21386;-36
2023/06/23 16:56:09;;;;;;;28.05;21.27;;;27.20;71.90;;;;;;4812984;56;20979;-33
2023/06/23 17:01:11;;;;;;;23.48;20.98;;;27.20;71.90;;;;;;4696831;56;21548;-36
2023/06/23 17:06:12;;;;;;;25.60;22.50;;;27.20;71.90;;;;;;4659570;60;21051;-37
2023/06/23 17:11:14;;;;;;;26.62;21.77;;;27.20;72.00;;;;;;4672899;56;21102;-36
2023/06/23 17:16:15;;;;;;;24.52;21.92;;;27.20;72.00;;;;;;4711036;56;21039;-35
2023/06/23 17:21:16;;;;;;;24.30;21.70;;;27.20;72.00;;;;;;4665464;56;21038;-39
2023/06/23 17:26:17;;;;;;;24.80;22.20;;;27.20;72.10;;;;;;4659248;60;21477;-39
2023/06/23 17:31:18;;;;;;;23.67;21.12;;;27.20;72.10;;;;;;4702961;56;21457;-34
2023/06/23 17:36:19;;;;;;;24.60;21.60;;;27.20;72.20;;;;;;4720986;56;21010;-36
2023/06/23 17:41:20;;;;;;;24.80;21.98;;;27.20;72.20;;;;;;4741861;56;21428;-36
2023/06/23 17:46:22;;;;;;;23.98;21.48;;;27.20;72.30;;;;;;4659278;60;21002;-47
2023/06/23 17:51:23;;;;;;;26.17;21.48;;;27.20;72.30;;;;;;4675316;56;21471;-39
2023/06/23 17:56:24;;;;;;;25.15;21.48;;;27.20;72.30;;;;;;4659253;58;20974;-39
2023/06/23 18:01:24;;;;;;;25.40;22.30;;;27.20;72.40;;;;;;4658590;60;21438;-38
2023/06/23 18:06:25;;;;;;;26.17;22.60;;;27.20;72.40;;;;;;4724628;56;21053;-40
2023/06/23 18:11:26;;;;;;;25.08;21.02;;;27.20;72.40;;;;;;4723726;56;21534;-39
2023/06/23 18:16:27;;;;;;;29.37;23.42;;;27.20;72.40;;;;;;4671697;56;21503;-39
2023/06/23 18:21:28;;;;;;;26.15;23.23;;;27.20;72.50;;;;;;4658759;60;21516;-35
2023/06/23 18:26:29;;;;;;;25.45;21.48;;;27.20;72.50;;;;;;4659180;57;21553;-36
2023/06/23 18:31:30;;;;;;;25.33;22.40;;;27.20;72.50;;;;;;4659627;60;21449;-38
2023/06/23 18:36:30;;;;;;;23.27;20.75;;;27.20;72.50;;;;;;4893848;56;21015;-35
2023/06/23 18:41:33;;;;;;;23.80;20.42;;;27.20;72.40;;;;;;4741947;56;21560;-36
2023/06/23 18:46:34;;;;;;;23.67;21.15;;;27.20;72.50;;;;;;4817845;56;22169;-38
2023/06/23 18:51:35;;;;;;;25.33;20.73;;;27.20;72.50;;;;;;4756064;56;21002;-39
2023/06/23 18:56:36;;;;;;;23.48;20.83;;;27.20;72.50;;;;;;4840933;56;21536;-37
2023/06/23 19:01:37;;;;;;;24.40;20.35;;;27.20;72.50;;;;;;4735188;56;21641;-36
2023/06/23 19:06:38;;;;;;;23.95;21.45;;;27.20;72.50;;;;;;4861813;56;21078;-37
2023/06/23 19:11:39;;;;;;;25.00;20.92;;;27.20;72.50;;;;;;4721177;56;21492;-34
2023/06/23 19:16:40;;;;;;;24.12;20.50;;;27.20;72.50;;;;;;4700507;56;21021;-37
2023/06/23 19:21:42;;;;;;;23.40;20.83;;;27.20;72.50;;;;;;4721869;56;21022;-36
2023/06/23 19:26:44;;;;;;;23.50;21.00;;;27.20;72.50;;;;;;4660098;60;21118;-37
2023/06/23 19:31:44;;;;;;;24.08;21.30;;;27.20;72.50;;;;;;4714712;56;21009;-38
2023/06/23 19:36:45;;;;;;;23.33;19.52;;;27.20;72.50;;;;;;4721343;56;21616;-38
2023/06/23 19:41:46;;;;;;;24.60;20.62;;;27.20;72.50;;;;;;4658870;60;21081;-34
2023/06/23 19:46:47;;;;;;;25.65;20.98;;;27.20;73.10;;;;;;4678961;56;21010;-36
2023/06/23 19:51:50;;;;;;;23.30;20.77;;;27.20;72.50;;;;;;4703372;56;21568;-34
2023/06/23 19:56:51;;;;;;;24.63;20.65;;;27.20;72.50;;;;;;4761334;56;21496;-39
2023/06/23 20:01:51;;;;;;;22.35;19.83;;;27.20;72.50;;;;;;4667717;56;21105;-36
2023/06/23 20:06:52;;;;;;;21.98;19.67;;;27.20;72.50;;;;;;4661783;56;21478;-38
2023/06/23 20:11:53;;;;;;;24.23;21.73;;;27.20;72.50;;;;;;4858793;56;21145;-36
2023/06/23 20:16:54;;;;;;;24.10;21.60;;;27.20;72.50;;;;;;4659302;60;21006;-37
2023/06/23 20:21:55;;;;;;;22.60;19.77;;;27.20;72.50;;;;;;4658701;60;21014;-36
2023/06/23 20:26:56;;;;;;;20.83;18.73;;;27.20;72.40;;;;;;4756556;56;21501;-37
2023/06/23 20:31:57;;;;;;;20.20;18.05;;;27.20;72.40;;;;;;4729639;56;21489;-37
2023/06/23 20:36:58;;;;;;;21.67;19.33;;;27.20;72.30;;;;;;4742102;56;21034;-37
2023/06/23 20:41:59;;;;;;;21.95;19.52;;;27.20;72.30;;;;;;4659960;56;21472;-35
2023/06/23 20:47:00;;;;;;;22.05;19.77;;;27.20;72.30;;;;;;4659987;60;21038;-37
2023/06/23 20:52:00;;;;;;;21.20;18.95;;;27.20;72.30;;;;;;4679021;56;21089;-36
2023/06/23 20:57:01;;;;;;;21.30;19.05;;;27.20;72.30;;;;;;4692935;56;21010;-37
2023/06/23 21:02:03;;;;;;;21.27;19.10;;;27.20;72.20;;;;;;4682391;56;21038;-37
2023/06/23 21:07:04;;;;;;;21.05;18.80;;;27.20;72.20;;;;;;4681897;56;21046;-36
2023/06/23 21:12:10;;;;;;;21.52;18.98;;;27.20;72.20;;;;;;4699455;56;20982;-38
2023/06/23 21:17:14;;;;;;;20.85;18.65;;;27.20;72.10;;;;;;4762267;56;21030;-38
2023/06/23 21:22:25;;;;;;;20.85;18.58;;;27.20;72.10;;;;;;4802591;55;21126;-37
2023/06/23 21:27:26;;;;;;;20.23;18.02;;;27.20;72.00;;;;;;4664591;56;21014;-37
2023/06/23 21:32:42;;;;;;;21.62;18.65;;;27.20;71.90;;;;;;4799431;56;21066;-36
2023/06/23 21:37:46;;;;;;;19.33;17.25;;;27.20;71.90;;;;;;4890611;56;21533;-37
2023/06/23 21:42:48;;;;;;;18.05;16.12;;;27.20;71.90;;;;;;4659588;60;21086;-37
2023/06/23 21:48:01;;;;;;;;;;;;;;;;;;;;;
2023/06/23 21:53:19;;;;;;;18.80;16.67;;;27.20;71.60;;;;;;4659651;58;21509;-39
2023/06/23 21:58:21;;;;;;;19.70;17.23;;;27.20;71.70;;;;;;4876224;56;21508;-38
2023/06/23 22:03:22;;;;;;;19.67;17.08;;;27.20;71.60;;;;;;4659670;56;21058;-37
2023/06/23 22:08:24;;;;;;;18.42;16.50;;;27.20;71.50;;;;;;4733384;56;21479;-38
2023/06/23 22:13:28;;;;;;;18.60;16.55;;;27.20;71.40;;;;;;4705175;56;21544;-39
2023/06/23 22:18:32;;;;;;;18.77;16.58;;;27.20;71.50;;;;;;4659412;60;21515;-34
2023/06/23 22:23:33;;;;;;;19.27;16.42;;;27.20;71.50;;;;;;4697269;56;21102;-37
2023/06/23 22:28:34;;;;;;;18.17;16.27;;;27.20;71.60;;;;;;4726368;56;21067;-38
2023/06/23 22:33:35;;;;;;;19.50;16.62;;;27.20;71.40;;;;;;4659692;60;20994;-33
2023/06/23 22:38:36;;;;;;;19.58;16.48;;;27.20;71.50;;;;;;4875731;56;21034;-36
2023/06/23 22:43:37;;;;;;;17.70;15.57;;;27.20;71.50;;;;;;4719236;56;20999;-36
2023/06/23 22:48:38;;;;;;;18.80;16.95;;;27.20;71.50;;;;;;4761674;56;21026;-36
2023/06/23 22:53:39;;;;;;;17.87;15.93;;;27.20;71.50;;;;;;4689214;56;21031;-36
2023/06/23 22:58:40;;;;;;;18.30;16.40;;;27.20;71.60;;;;;;4659169;60;21476;-36
2023/06/23 23:03:40;;;;;;;18.55;16.65;;;27.20;71.60;;;;;;4707122;56;21006;-35
2023/06/23 23:08:41;;;;;;;18.05;16.15;;;27.20;71.60;;;;;;4659639;60;21473;-36
2023/06/23 23:13:42;;;;;;;17.70;15.48;;;27.20;71.60;;;;;;4752272;56;21026;-37
2023/06/23 23:18:46;;;;;;;19.05;17.02;;;27.20;71.60;;;;;;4686429;56;21006;-33
2023/06/23 23:23:52;;;;;;;17.42;15.57;;;27.20;71.60;;;;;;4701791;56;21030;-36
2023/06/23 23:28:53;;;;;;;17.20;15.50;;;27.20;71.70;;;;;;4792227;56;21547;-38
2023/06/23 23:33:54;;;;;;;18.40;16.08;;;27.20;71.70;;;;;;4659605;60;21541;-36
2023/06/23 23:38:55;;;;;;;18.08;16.17;;;27.20;71.70;;;;;;4744175;56;21419;-37
2023/06/23 23:43:56;;;;;;;17.10;15.30;;;27.20;71.70;;;;;;4771806;56;21484;-36
2023/06/23 23:48:57;;;;;;;17.95;16.00;;;27.20;71.70;;;;;;4671907;56;21006;-37
2023/06/23 23:53:57;;;;;;;17.48;15.68;;;27.20;71.70;;;;;;4771138;56;21010;-37
2023/06/23 23:58:58;;;;;;;16.98;15.18;;;27.20;71.80;;;;;;4981944;56;21086;-36
